createdAt,value
2023-09-09T00:00:13.804Z,100881.00
2023-09-09T00:02:46.331Z,100881.44
2023-09-09T00:05:18.589Z,100881.25
2023-09-09T00:07:45.246Z,100882.06
2023-09-09T00:10:18.294Z,100881.63
2023-09-09T00:12:57.940Z,100879.28
2023-09-09T00:15:24.698Z,100874.03
2023-09-09T00:17:54.530Z,100879.28
2023-09-09T00:20:30.337Z,100879.50
2023-09-09T00:23:09.199Z,100880.16
2023-09-09T00:25:45.512Z,100877.47
2023-09-09T00:28:18.743Z,100876.97
2023-09-09T00:30:47.910Z,100876.59
2023-09-09T00:33:17.580Z,100875.78
2023-09-09T00:35:44.227Z,100868.03
2023-09-09T00:38:18.134Z,100859.00
2023-09-09T00:40:51.909Z,100862.06
2023-09-09T00:43:21.692Z,100872.75
2023-09-09T00:45:54.673Z,100874.72
2023-09-09T00:48:27.143Z,100867.72
2023-09-09T00:50:57.878Z,100865.41
2023-09-09T00:53:25.153Z,100861.78
2023-09-09T00:56:02.545Z,100861.19
2023-09-09T00:58:41.627Z,100868.31
2023-09-09T01:01:13.734Z,100859.50
2023-09-09T01:03:40.593Z,100861.66
2023-09-09T01:06:10.567Z,100857.34
2023-09-09T01:08:39.794Z,100856.19
2023-09-09T01:11:14.202Z,100860.44
2023-09-09T01:13:44.449Z,100859.44
2023-09-09T01:16:12.075Z,100857.22
2023-09-09T01:18:43.562Z,100850.88
2023-09-09T01:21:16.465Z,100860.88
2023-09-09T01:23:53.142Z,100858.03
2023-09-09T01:26:25.568Z,100852.50
2023-09-09T01:28:54.862Z,100848.69
2023-09-09T01:31:24.787Z,100847.94
2023-09-09T01:33:59.792Z,100855.81
2023-09-09T01:36:32.320Z,100851.31
2023-09-09T01:39:01.948Z,100849.47
2023-09-09T01:41:33.833Z,100843.94
2023-09-09T01:44:08.989Z,100857.19
2023-09-09T01:46:41.428Z,100845.72
2023-09-09T01:49:16.542Z,100856.63
2023-09-09T01:51:46.134Z,100857.44
2023-09-09T01:54:20.926Z,100847.78
2023-09-09T01:56:50.430Z,100851.25
2023-09-09T01:59:22.839Z,100851.94
2023-09-09T02:01:52.843Z,100853.47
2023-09-09T02:04:22.556Z,100862.31
2023-09-09T02:06:54.883Z,100854.16
2023-09-09T02:09:27.314Z,100854.97
2023-09-09T02:12:00.074Z,100855.53
2023-09-09T02:14:35.597Z,100855.66
2023-09-09T02:17:13.156Z,100857.03
2023-09-09T02:19:45.224Z,100857.16
2023-09-09T02:22:19.005Z,100853.38
2023-09-09T02:25:09.498Z,100860.59
2023-09-09T02:27:39.676Z,100851.78
2023-09-09T02:30:09.847Z,100853.13
2023-09-09T02:32:45.115Z,100857.38
2023-09-09T02:35:14.980Z,100848.66
2023-09-09T02:37:50.189Z,100844.16
2023-09-09T02:40:20.238Z,100844.97
2023-09-09T02:42:55.323Z,100853.50
2023-09-09T02:45:27.909Z,100854.19
2023-09-09T02:47:57.647Z,100854.38
2023-09-09T02:50:35.800Z,100851.56
2023-09-09T02:53:05.615Z,100846.88
2023-09-09T02:55:35.666Z,100846.00
2023-09-09T02:58:04.732Z,100851.06
2023-09-09T03:00:34.794Z,100859.41
2023-09-09T03:03:04.725Z,100853.22
2023-09-09T03:05:46.327Z,100851.56
2023-09-09T03:08:18.270Z,100852.81
2023-09-09T03:10:50.761Z,100860.53
2023-09-09T03:13:17.677Z,100858.03
2023-09-09T03:15:47.521Z,100855.41
2023-09-09T03:18:19.398Z,100862.31
2023-09-09T03:20:48.895Z,100861.34
2023-09-09T03:23:18.355Z,100867.38
2023-09-09T03:25:53.614Z,100860.22
2023-09-09T03:28:21.619Z,100867.38
2023-09-09T03:31:00.307Z,100862.03
2023-09-09T03:33:32.354Z,100860.75
2023-09-09T03:36:02.047Z,100859.50
2023-09-09T03:38:34.188Z,100865.94
2023-09-09T03:41:03.768Z,100859.97
2023-09-09T03:43:38.282Z,100865.41
2023-09-09T03:46:11.274Z,100859.28
2023-09-09T03:48:50.369Z,100861.50
2023-09-09T03:51:18.611Z,100867.69
2023-09-09T03:53:48.333Z,100859.31
2023-09-09T03:56:19.450Z,100861.50
2023-09-09T03:58:49.217Z,100860.25
2023-09-09T04:01:18.402Z,100866.97
2023-09-09T04:03:52.361Z,100882.44
2023-09-09T04:06:23.820Z,100867.63
2023-09-09T04:08:59.273Z,100870.38
2023-09-09T04:11:31.754Z,100867.41
2023-09-09T04:14:07.352Z,100868.97
2023-09-09T04:16:40.057Z,100864.34
2023-09-09T04:19:08.895Z,100868.53
2023-09-09T04:21:41.211Z,100862.22
2023-09-09T04:24:16.509Z,100866.13
2023-09-09T04:26:47.119Z,100864.56
2023-09-09T04:29:19.630Z,100871.28
2023-09-09T04:31:53.494Z,100870.94
2023-09-09T04:34:22.825Z,100868.84
2023-09-09T04:36:54.847Z,100868.53
2023-09-09T04:39:35.455Z,100861.47
2023-09-09T04:42:07.852Z,100862.28
2023-09-09T04:44:43.463Z,100867.69
2023-09-09T04:47:13.506Z,100869.00
2023-09-09T04:49:44.138Z,100867.19
2023-09-09T04:52:19.876Z,100871.28
2023-09-09T04:54:50.612Z,100869.56
2023-09-09T04:57:21.879Z,100871.47
2023-09-09T04:59:51.720Z,100873.47
2023-09-09T05:02:22.294Z,100874.22
2023-09-09T05:04:56.245Z,100879.03
2023-09-09T05:07:27.135Z,100878.97
2023-09-09T05:09:54.127Z,100877.03
2023-09-09T05:12:26.717Z,100874.19
2023-09-09T05:14:57.252Z,100876.47
2023-09-09T05:17:29.205Z,100879.41
2023-09-09T05:20:04.329Z,100884.22
2023-09-09T05:22:42.539Z,100890.81
2023-09-09T05:25:14.961Z,100886.25
2023-09-09T05:27:42.349Z,100892.84
2023-09-09T05:30:14.274Z,100895.31
2023-09-09T05:32:46.849Z,100898.91
2023-09-09T05:35:25.188Z,100897.88
2023-09-09T05:38:00.300Z,100897.16
2023-09-09T05:40:27.231Z,100888.84
2023-09-09T05:42:57.157Z,100891.63
2023-09-09T05:45:30.352Z,100893.50
2023-09-09T05:48:02.762Z,100897.13
2023-09-09T05:50:32.476Z,100897.38
2023-09-09T05:53:02.675Z,100900.56
2023-09-09T05:55:36.287Z,100896.78
2023-09-09T05:58:05.577Z,100893.97
2023-09-09T06:00:40.688Z,100911.63
2023-09-09T06:03:12.724Z,100905.25
2023-09-09T06:05:44.822Z,100909.47
2023-09-09T06:08:17.290Z,100911.00
2023-09-09T06:10:50.177Z,100904.66
2023-09-09T06:13:25.036Z,100909.88
2023-09-09T06:15:55.193Z,100907.25
2023-09-09T06:18:29.336Z,100913.78
2023-09-09T06:21:07.275Z,100912.56
2023-09-09T06:23:37.053Z,100915.56
2023-09-09T06:26:04.126Z,100917.78
2023-09-09T06:28:36.096Z,100922.25
2023-09-09T06:31:08.613Z,100914.47
2023-09-09T06:33:41.939Z,100916.34
2023-09-09T06:36:17.581Z,100929.06
2023-09-09T06:38:50.265Z,100921.41
2023-09-09T06:41:23.984Z,100928.69
2023-09-09T06:43:56.632Z,100929.50
2023-09-09T06:46:25.698Z,100930.75
2023-09-09T06:49:02.884Z,100928.69
2023-09-09T06:51:34.821Z,100933.44
2023-09-09T06:54:10.192Z,100926.75
2023-09-09T06:56:43.658Z,100933.38
2023-09-09T06:59:19.104Z,100938.38
2023-09-09T07:01:49.736Z,100934.50
2023-09-09T07:04:19.444Z,100935.06
2023-09-09T07:07:11.416Z,100938.28
2023-09-09T07:09:45.722Z,100930.09
2023-09-09T07:12:17.250Z,100927.91
2023-09-09T07:14:44.226Z,100933.38
2023-09-09T07:17:16.595Z,100930.97
2023-09-09T07:19:48.864Z,100932.84
2023-09-09T07:22:19.770Z,100930.53
2023-09-09T07:24:55.244Z,100924.13
2023-09-09T07:27:25.301Z,100927.84
2023-09-09T07:29:57.557Z,100921.47
2023-09-09T07:32:24.049Z,100922.03
2023-09-09T07:34:51.229Z,100926.88
2023-09-09T07:37:18.551Z,100916.50
2023-09-09T07:39:54.540Z,100920.53
2023-09-09T07:42:21.095Z,100920.28
2023-09-09T07:44:47.717Z,100919.00
2023-09-09T07:47:22.162Z,100919.31
2023-09-09T07:49:49.356Z,100920.72
2023-09-09T07:52:21.255Z,100922.03
2023-09-09T07:54:50.314Z,100918.84
2023-09-09T07:57:20.219Z,100924.50
2023-09-09T07:59:52.439Z,100925.50
2023-09-09T08:02:23.055Z,100921.75
2023-09-09T08:04:54.710Z,100919.69
2023-09-09T08:07:24.072Z,100917.38
2023-09-09T08:09:54.541Z,100917.25
2023-09-09T08:12:24.190Z,100916.44
2023-09-09T08:15:11.388Z,100909.00
2023-09-09T08:17:42.090Z,100903.34
2023-09-09T08:20:12.193Z,100905.97
2023-09-09T08:22:40.025Z,100902.94
2023-09-09T08:25:09.564Z,100909.44
2023-09-09T08:27:44.093Z,100908.50
2023-09-09T08:30:18.269Z,100907.31
2023-09-09T08:32:47.793Z,100908.00
2023-09-09T08:35:26.235Z,100910.34
2023-09-09T08:38:02.792Z,100916.09
2023-09-09T08:40:39.632Z,100911.13
2023-09-09T08:43:12.022Z,100915.84
2023-09-09T08:45:59.788Z,100905.53
2023-09-09T08:48:33.157Z,100910.19
2023-09-09T08:51:01.361Z,100907.56
2023-09-09T08:53:33.144Z,100912.28
2023-09-09T08:56:01.853Z,100907.13
2023-09-09T08:58:29.156Z,100907.25
2023-09-09T09:00:56.221Z,100903.91
2023-09-09T09:03:25.849Z,100906.81
2023-09-09T09:06:00.560Z,100904.41
2023-09-09T09:08:31.199Z,100902.75
2023-09-09T09:11:02.592Z,100906.44
2023-09-09T09:13:33.445Z,100907.47
2023-09-09T09:16:09.583Z,100908.44
2023-09-09T09:18:37.268Z,100906.84
2023-09-09T09:21:11.373Z,100903.47
2023-09-09T09:23:47.715Z,100903.63
2023-09-09T09:26:24.418Z,100894.94
2023-09-09T09:28:54.484Z,100896.13
2023-09-09T09:31:25.553Z,100891.81
2023-09-09T09:33:58.695Z,100893.59
2023-09-09T09:36:28.679Z,100890.25
2023-09-09T09:39:01.346Z,100898.09
2023-09-09T09:41:29.284Z,100897.28
2023-09-09T09:44:01.323Z,100889.41
2023-09-09T09:46:36.442Z,100900.00
2023-09-09T09:49:17.762Z,100897.25
2023-09-09T09:51:47.614Z,100891.25
2023-09-09T09:54:25.732Z,100895.69
2023-09-09T09:57:05.476Z,100891.63
2023-09-09T09:59:40.053Z,100894.50
2023-09-09T10:02:15.665Z,100891.19
2023-09-09T10:04:45.485Z,100887.59
2023-09-09T10:07:27.556Z,100880.63
2023-09-09T10:10:09.462Z,100878.19
2023-09-09T10:13:02.364Z,100880.06
2023-09-09T10:15:35.303Z,100874.72
2023-09-09T10:18:03.812Z,100878.38
2023-09-09T10:20:37.939Z,100868.56
2023-09-09T10:23:08.659Z,100872.16
2023-09-09T10:25:40.021Z,100871.25
2023-09-09T10:28:09.202Z,100873.91
2023-09-09T10:30:43.786Z,100865.81
2023-09-09T10:33:17.266Z,100859.47
2023-09-09T10:35:54.568Z,100860.25
2023-09-09T10:38:26.531Z,100867.28
2023-09-09T10:40:59.536Z,100855.59
2023-09-09T10:43:35.401Z,100864.38
2023-09-09T10:46:04.699Z,100853.69
2023-09-09T10:48:33.955Z,100860.63
2023-09-09T10:51:12.887Z,100859.59
2023-09-09T10:53:46.207Z,100855.16
2023-09-09T10:56:18.125Z,100855.63
2023-09-09T10:58:48.338Z,100868.78
2023-09-09T11:01:27.862Z,100854.59
2023-09-09T11:04:05.691Z,100867.00
2023-09-09T11:06:33.086Z,100861.88
2023-09-09T11:09:06.624Z,100861.78
2023-09-09T11:11:43.220Z,100861.88
2023-09-09T11:14:16.974Z,100854.47
2023-09-09T11:16:47.139Z,100859.66
2023-09-09T11:19:17.853Z,100857.91
2023-09-09T11:21:48.977Z,100851.84
2023-09-09T11:24:16.139Z,100853.38
2023-09-09T11:26:50.706Z,100845.47
2023-09-09T11:29:36.484Z,100851.66
2023-09-09T11:32:12.293Z,100847.63
2023-09-09T11:34:50.811Z,100849.03
2023-09-09T11:37:20.460Z,100843.31
2023-09-09T11:39:55.330Z,100840.94
2023-09-09T11:42:25.411Z,100843.59
2023-09-09T11:44:54.974Z,100845.25
2023-09-09T11:47:26.242Z,100844.97
2023-09-09T11:49:58.663Z,100843.38
2023-09-09T11:52:34.546Z,100842.00
2023-09-09T11:55:03.627Z,100847.09
2023-09-09T11:57:33.029Z,100831.72
2023-09-09T12:00:08.302Z,100835.44
2023-09-09T12:02:40.662Z,100829.44
2023-09-09T12:05:13.332Z,100831.09
2023-09-09T12:07:50.606Z,100822.19
2023-09-09T12:10:26.282Z,100823.88
2023-09-09T12:12:58.956Z,100827.59
2023-09-09T12:15:33.829Z,100824.59
2023-09-09T12:18:13.636Z,100827.63
2023-09-09T12:21:18.976Z,100831.25
2023-09-09T12:23:53.763Z,100829.91
2023-09-09T12:26:26.368Z,100825.44
2023-09-09T12:29:15.642Z,100825.41
2023-09-09T12:32:01.514Z,100830.34
2023-09-09T12:34:28.749Z,100820.56
2023-09-09T12:37:05.658Z,100834.13
2023-09-09T12:39:37.731Z,100826.69
2023-09-09T12:42:13.248Z,100822.03
2023-09-09T12:44:52.388Z,100826.28
2023-09-09T12:47:25.997Z,100823.13
2023-09-09T12:49:55.948Z,100821.50
2023-09-09T12:52:25.564Z,100825.28
2023-09-09T12:54:54.847Z,100824.06
2023-09-09T12:57:26.884Z,100816.16
2023-09-09T12:59:59.225Z,100813.13
2023-09-09T13:02:28.746Z,100815.16
2023-09-09T13:05:02.359Z,100815.47
2023-09-09T13:07:31.938Z,100818.59
2023-09-09T13:10:01.778Z,100811.47
2023-09-09T13:12:31.061Z,100825.19
2023-09-09T13:15:00.538Z,100819.06
2023-09-09T13:17:30.023Z,100812.03
2023-09-09T13:20:05.458Z,100819.81
2023-09-09T13:22:38.325Z,100814.06
2023-09-09T13:25:11.056Z,100817.66
2023-09-09T13:27:41.244Z,100822.59
2023-09-09T13:30:13.744Z,100813.78
2023-09-09T13:32:46.410Z,100810.66
2023-09-09T13:35:18.465Z,100797.84
2023-09-09T13:37:48.285Z,100793.31
2023-09-09T13:40:21.417Z,100799.91
2023-09-09T13:42:56.691Z,100798.84
2023-09-09T13:45:32.205Z,100799.59
2023-09-09T13:48:04.176Z,100794.00
2023-09-09T13:50:39.004Z,100792.19
2023-09-09T13:53:08.647Z,100799.63
2023-09-09T13:55:35.146Z,100786.06
2023-09-09T13:58:01.620Z,100801.94
2023-09-09T14:00:28.183Z,100786.06
2023-09-09T14:02:54.776Z,100779.06
2023-09-09T14:05:24.817Z,100790.50
2023-09-09T14:07:53.760Z,100795.03
2023-09-09T14:10:25.886Z,100789.00
2023-09-09T14:12:55.645Z,100781.59
2023-09-09T14:15:25.206Z,100788.81
2023-09-09T14:17:57.824Z,100781.06
2023-09-09T14:20:33.453Z,100788.84
2023-09-09T14:23:05.325Z,100775.34
2023-09-09T14:25:36.110Z,100782.59
2023-09-09T14:28:07.432Z,100785.25
2023-09-09T14:30:42.574Z,100785.53
2023-09-09T14:33:11.552Z,100780.53
2023-09-09T14:35:45.539Z,100790.66
2023-09-09T14:38:15.326Z,100785.63
2023-09-09T14:40:47.242Z,100781.91
2023-09-09T14:43:19.633Z,100791.56
2023-09-09T14:45:49.722Z,100793.72
2023-09-09T14:48:24.882Z,100792.97
2023-09-09T14:50:55.929Z,100788.34
2023-09-09T14:53:22.932Z,100799.09
2023-09-09T14:55:58.116Z,100792.91
2023-09-09T14:58:25.772Z,100789.72
2023-09-09T15:01:00.284Z,100791.84
2023-09-09T15:03:40.070Z,100790.13
2023-09-09T15:06:12.562Z,100792.47
2023-09-09T15:08:45.875Z,100792.53
2023-09-09T15:11:18.290Z,100785.16
2023-09-09T15:13:50.056Z,100787.25
2023-09-09T15:16:26.664Z,100787.75
2023-09-09T15:18:56.391Z,100790.94
2023-09-09T15:21:28.937Z,100789.81
2023-09-09T15:24:00.511Z,100788.09
2023-09-09T15:26:38.237Z,100795.47
2023-09-09T15:29:05.912Z,100796.66
2023-09-09T15:31:38.809Z,100787.75
2023-09-09T15:34:10.952Z,100793.38
2023-09-09T15:36:43.129Z,100794.25
2023-09-09T15:39:14.823Z,100787.69
2023-09-09T15:41:47.282Z,100793.53
2023-09-09T15:44:19.230Z,100790.28
2023-09-09T15:46:49.013Z,100786.84
2023-09-09T15:49:24.141Z,100786.91
2023-09-09T15:51:53.478Z,100777.34
2023-09-09T15:54:25.906Z,100776.56
2023-09-09T15:56:57.885Z,100770.94
2023-09-09T15:59:29.912Z,100770.88
2023-09-09T16:01:59.362Z,100774.16
2023-09-09T16:04:37.386Z,100774.22
2023-09-09T16:07:10.685Z,100772.22
2023-09-09T16:09:43.352Z,100781.31
2023-09-09T16:12:12.767Z,100786.00
2023-09-09T16:14:42.240Z,100781.06
2023-09-09T16:17:22.805Z,100795.22
2023-09-09T16:19:55.641Z,100793.81
2023-09-09T16:22:30.757Z,100794.19
2023-09-09T16:25:06.433Z,100803.44
2023-09-09T16:27:36.392Z,100802.72
2023-09-09T16:30:12.870Z,100806.81
2023-09-09T16:32:45.281Z,100810.19
2023-09-09T16:35:16.578Z,100807.72
2023-09-09T16:37:55.234Z,100805.91
2023-09-09T16:40:27.257Z,100809.59
2023-09-09T16:42:56.657Z,100809.47
2023-09-09T16:45:28.960Z,100810.06
2023-09-09T16:48:01.154Z,100809.91
2023-09-09T16:50:37.388Z,100809.13
2023-09-09T16:53:14.082Z,100817.38
2023-09-09T16:55:46.883Z,100822.53
2023-09-09T16:58:16.390Z,100817.28
2023-09-09T17:00:49.954Z,100826.66
2023-09-09T17:03:16.997Z,100827.72
2023-09-09T17:05:46.057Z,100821.75
2023-09-09T17:08:15.527Z,100829.19
2023-09-09T17:10:47.960Z,100834.72
2023-09-09T17:13:23.900Z,100838.38
2023-09-09T17:15:56.289Z,100842.84
2023-09-09T17:18:29.214Z,100841.03
2023-09-09T17:21:06.828Z,100840.13
2023-09-09T17:23:37.357Z,100839.25
2023-09-09T17:26:09.967Z,100833.00
2023-09-09T17:28:39.599Z,100838.31
2023-09-09T17:31:11.336Z,100842.75
2023-09-09T17:33:46.911Z,100841.88
2023-09-09T17:36:19.234Z,100845.34
2023-09-09T17:38:54.747Z,100847.94
2023-09-09T17:41:27.198Z,100845.13
2023-09-09T17:43:59.318Z,100845.00
2023-09-09T17:46:31.965Z,100844.91
2023-09-09T17:49:05.086Z,100857.22
2023-09-09T17:51:40.273Z,100860.63
2023-09-09T17:54:15.769Z,100862.25
2023-09-09T17:56:53.857Z,100862.09
2023-09-09T17:59:30.154Z,100862.03
2023-09-09T18:02:02.264Z,100867.06
2023-09-09T18:04:37.379Z,100867.09
2023-09-09T18:07:04.621Z,100872.16
2023-09-09T18:09:34.593Z,100877.13
2023-09-09T18:12:08.055Z,100873.44
2023-09-09T18:14:43.328Z,100875.22
2023-09-09T18:17:16.055Z,100880.41
2023-09-09T18:19:48.576Z,100878.28
2023-09-09T18:22:18.588Z,100885.81
2023-09-09T18:24:47.829Z,100887.41
2023-09-09T18:27:14.551Z,100895.84
2023-09-09T18:29:46.651Z,100903.44
2023-09-09T18:32:18.999Z,100893.59
2023-09-09T18:34:46.175Z,100897.06
2023-09-09T18:37:18.629Z,100900.38
2023-09-09T18:39:47.612Z,100906.25
2023-09-09T18:42:19.117Z,100909.47
2023-09-09T18:44:48.252Z,100900.94
2023-09-09T18:47:23.189Z,100916.41
2023-09-09T18:49:55.759Z,100910.91
2023-09-09T18:52:28.516Z,100911.41
2023-09-09T18:54:58.077Z,100922.38
2023-09-09T18:57:26.073Z,100923.56
2023-09-09T18:59:55.335Z,100926.22
2023-09-09T19:02:29.889Z,100925.22
2023-09-09T19:04:57.432Z,100928.44
2023-09-09T19:07:37.030Z,100933.66
2023-09-09T19:10:07.501Z,100924.56
2023-09-09T19:12:42.036Z,100933.44
2023-09-09T19:15:14.049Z,100931.16
2023-09-09T19:17:46.281Z,100935.63
2023-09-09T19:20:16.272Z,100938.78
2023-09-09T19:22:48.408Z,100940.53
2023-09-09T19:25:26.298Z,100942.94
2023-09-09T19:28:00.748Z,100942.28
2023-09-09T19:30:33.092Z,100947.22
2023-09-09T19:33:13.264Z,100945.03
2023-09-09T19:35:51.272Z,100942.84
2023-09-09T19:38:22.569Z,100946.16
2023-09-09T19:40:50.041Z,100949.25
2023-09-09T19:43:21.897Z,100951.69
2023-09-09T19:45:54.084Z,100951.78
2023-09-09T19:48:26.073Z,100954.50
2023-09-09T19:50:58.774Z,100956.66
2023-09-09T19:53:26.639Z,100961.75
2023-09-09T19:55:58.716Z,100957.50
2023-09-09T19:58:30.372Z,100960.50
2023-09-09T20:01:02.294Z,100956.31
2023-09-09T20:03:32.254Z,100957.16
2023-09-09T20:06:08.064Z,100960.53
2023-09-09T20:08:40.905Z,100957.88
2023-09-09T20:11:10.159Z,100975.59
2023-09-09T20:13:39.828Z,100970.72
2023-09-09T20:16:09.824Z,100968.25
2023-09-09T20:18:41.925Z,100970.84
2023-09-09T20:21:11.547Z,100970.81
2023-09-09T20:23:46.431Z,100979.47
2023-09-09T20:26:24.378Z,100980.47
2023-09-09T20:28:56.762Z,100975.19
2023-09-09T20:31:31.877Z,100982.13
2023-09-09T20:34:06.402Z,100983.66
2023-09-09T20:36:40.476Z,100980.75
2023-09-09T20:39:11.640Z,100982.41
2023-09-09T20:41:50.423Z,100979.69
2023-09-09T20:44:21.889Z,100982.03
2023-09-09T20:46:51.186Z,100971.06
2023-09-09T20:49:22.667Z,100971.69
2023-09-09T20:51:55.110Z,100974.28
2023-09-09T20:54:27.926Z,100970.09
2023-09-09T20:56:56.891Z,100976.88
2023-09-09T20:59:29.003Z,100978.53
2023-09-09T21:02:04.235Z,100982.63
2023-09-09T21:04:37.107Z,100976.41
2023-09-09T21:07:06.118Z,100983.50
2023-09-09T21:09:38.367Z,100984.03
2023-09-09T21:12:10.768Z,100987.34
2023-09-09T21:14:45.243Z,100993.59
2023-09-09T21:17:14.286Z,100985.25
2023-09-09T21:19:49.820Z,100990.84
2023-09-09T21:22:16.415Z,100998.38
2023-09-09T21:24:49.230Z,100991.75
2023-09-09T21:27:21.657Z,100991.88
2023-09-09T21:29:53.018Z,100997.28
2023-09-09T21:32:26.351Z,101001.13
2023-09-09T21:34:55.867Z,100992.00
2023-09-09T21:37:30.562Z,100988.06
2023-09-09T21:40:02.666Z,100991.38
2023-09-09T21:42:32.416Z,100992.69
2023-09-09T21:45:04.602Z,100984.38
2023-09-09T21:47:35.949Z,100993.56
2023-09-09T21:50:05.755Z,100994.44
2023-09-09T21:52:39.940Z,100992.19
2023-09-09T21:55:13.193Z,100987.53
2023-09-09T21:57:44.450Z,100993.97
2023-09-09T22:00:28.791Z,100989.69
2023-09-09T22:03:00.982Z,100995.41
2023-09-09T22:05:30.351Z,100985.31
2023-09-09T22:08:04.647Z,100989.00
2023-09-09T22:10:39.961Z,100978.78
2023-09-09T22:13:11.593Z,100977.94
2023-09-09T22:15:43.568Z,100996.53
2023-09-09T22:18:13.277Z,100988.09
2023-09-09T22:20:45.618Z,100999.41
2023-09-09T22:23:15.398Z,100995.22
2023-09-09T22:25:47.791Z,100999.47
2023-09-09T22:28:17.469Z,100996.66
2023-09-09T22:30:46.153Z,101000.59
2023-09-09T22:33:18.708Z,100999.78
2023-09-09T22:35:48.156Z,101004.31
2023-09-09T22:38:17.473Z,100999.88
2023-09-09T22:40:49.144Z,100999.41
2023-09-09T22:43:20.614Z,100999.78
2023-09-09T22:45:52.445Z,101003.13
2023-09-09T22:48:24.474Z,100997.53
2023-09-09T22:50:53.672Z,100994.06
2023-09-09T22:53:31.211Z,101001.72
2023-09-09T22:56:03.735Z,101000.44
2023-09-09T22:58:34.544Z,101013.94
2023-09-09T23:01:08.213Z,101011.75
2023-09-09T23:03:40.286Z,101011.81
2023-09-09T23:06:09.733Z,101007.03
2023-09-09T23:08:36.711Z,101008.72
2023-09-09T23:11:14.139Z,101017.47
2023-09-09T23:13:46.162Z,101008.81
2023-09-09T23:16:16.838Z,101005.06
2023-09-09T23:18:46.296Z,101003.69
2023-09-09T23:21:15.302Z,101007.28
2023-09-09T23:23:50.336Z,101005.94
2023-09-09T23:26:25.332Z,101007.72
2023-09-09T23:28:58.622Z,101006.59
2023-09-09T23:31:25.547Z,101005.63
2023-09-09T23:33:54.635Z,101000.94
2023-09-09T23:36:26.803Z,101004.06
2023-09-09T23:39:02.758Z,101003.63
2023-09-09T23:41:38.565Z,101003.97
2023-09-09T23:44:05.864Z,101006.91
2023-09-09T23:46:40.408Z,101012.25
2023-09-09T23:49:08.898Z,101012.53
2023-09-09T23:51:36.045Z,101018.81
2023-09-09T23:54:04.147Z,101013.13
2023-09-09T23:56:31.058Z,101016.75
2023-09-09T23:59:00.548Z,101022.53
